createdAt,value
2019-02-07T00:00:42.330Z,30.43
2019-02-07T00:03:16.005Z,30.97
2019-02-07T00:05:49.638Z,32.03
2019-02-07T00:08:23.620Z,32.07
2019-02-07T00:10:57.274Z,31.63
2019-02-07T00:13:31.042Z,31.77
2019-02-07T00:16:04.864Z,32.50
2019-02-07T00:18:38.598Z,31.93
2019-02-07T00:21:12.247Z,33.07
2019-02-07T00:23:45.840Z,33.73
2019-02-07T00:26:19.608Z,39.30
2019-02-07T00:28:53.276Z,36.33
2019-02-07T00:31:29.800Z,34.83
2019-02-07T00:34:03.620Z,35.07
2019-02-07T00:36:37.248Z,34.10
2019-02-07T00:39:10.982Z,35.17
2019-02-07T00:41:44.854Z,34.47
2019-02-07T00:44:18.512Z,34.40
2019-02-07T00:46:52.094Z,34.13
2019-02-07T00:49:25.777Z,36.33
2019-02-07T00:51:59.767Z,35.33
2019-02-07T00:54:33.444Z,34.07
2019-02-07T00:57:07.072Z,36.13
2019-02-07T00:59:40.672Z,35.07
2019-02-07T01:02:14.370Z,33.83
2019-02-07T01:04:47.950Z,34.13
2019-02-07T01:07:21.706Z,34.73
2019-02-07T01:09:55.360Z,33.97
2019-02-07T01:12:29.077Z,35.67
2019-02-07T01:15:02.802Z,35.63
2019-02-07T01:17:36.416Z,34.67
2019-02-07T01:20:13.236Z,34.57
2019-02-07T01:22:47.394Z,35.50
2019-02-07T01:25:25.015Z,36.00
2019-02-07T01:27:58.761Z,35.17
2019-02-07T01:30:32.725Z,36.33
2019-02-07T01:33:06.786Z,36.33
2019-02-07T01:35:40.832Z,33.83
2019-02-07T01:38:14.692Z,37.17
2019-02-07T01:40:48.291Z,35.97
2019-02-07T01:43:22.038Z,35.33
2019-02-07T01:45:55.679Z,33.90
2019-02-07T01:48:29.340Z,35.90
2019-02-07T01:51:02.981Z,35.23
2019-02-07T01:53:36.650Z,35.77
2019-02-07T01:56:10.512Z,36.63
2019-02-07T01:58:44.109Z,36.67
2019-02-07T02:01:17.799Z,35.37
2019-02-07T02:03:51.380Z,37.63
2019-02-07T02:06:25.078Z,37.23
2019-02-07T02:08:59.036Z,35.67
2019-02-07T02:11:32.817Z,37.60
2019-02-07T02:14:07.823Z,36.10
2019-02-07T02:16:41.549Z,37.00
2019-02-07T02:19:15.156Z,38.33
2019-02-07T02:21:48.964Z,37.30
2019-02-07T02:24:22.640Z,36.03
2019-02-07T02:26:56.336Z,37.67
2019-02-07T02:29:29.998Z,35.30
2019-02-07T02:32:04.829Z,37.47
2019-02-07T02:34:38.558Z,37.70
2019-02-07T02:37:12.183Z,40.57
2019-02-07T02:39:45.972Z,38.50
2019-02-07T02:42:19.933Z,37.80
2019-02-07T02:44:53.912Z,37.93
2019-02-07T02:47:27.551Z,38.87
2019-02-07T02:50:01.226Z,39.97
2019-02-07T02:52:34.884Z,38.67
2019-02-07T02:55:10.726Z,38.27
2019-02-07T02:57:44.436Z,39.20
2019-02-07T03:00:20.044Z,40.03
2019-02-07T03:03:01.263Z,39.33
2019-02-07T03:05:36.524Z,37.70
2019-02-07T03:08:30.026Z,39.30
2019-02-07T03:11:06.063Z,39.80
2019-02-07T03:13:57.808Z,39.50
2019-02-07T03:16:51.443Z,41.17
2019-02-07T03:19:44.681Z,39.67
2019-02-07T03:22:29.052Z,38.80
2019-02-07T03:25:13.171Z,41.20
2019-02-07T03:27:54.098Z,39.57
2019-02-07T03:30:35.455Z,39.67
2019-02-07T03:33:13.276Z,40.87
2019-02-07T03:35:51.390Z,39.90
2019-02-07T03:41:44.720Z,41.73
2019-02-07T03:44:20.478Z,40.53
2019-02-07T03:47:04.590Z,41.17
2019-02-07T03:49:42.678Z,41.37
2019-02-07T03:52:23.877Z,42.00
2019-02-07T03:55:02.216Z,42.90
2019-02-07T03:57:46.406Z,37.93
2019-02-07T04:00:24.596Z,41.30
2019-02-07T04:03:02.752Z,40.47
2019-02-07T04:05:44.015Z,40.77
2019-02-07T04:08:19.424Z,42.13
2019-02-07T04:11:11.144Z,42.33
2019-02-07T04:13:52.350Z,41.77
2019-02-07T04:16:27.873Z,42.53
2019-02-07T04:19:18.025Z,40.30
2019-02-07T04:25:08.582Z,42.00
2019-02-07T04:27:43.864Z,43.33
2019-02-07T04:30:34.537Z,45.50
2019-02-07T04:33:09.824Z,44.07
2019-02-07T04:36:01.249Z,42.13
2019-02-07T04:38:52.572Z,43.67
2019-02-07T04:41:40.095Z,44.30
2019-02-07T04:44:31.696Z,43.80
2019-02-07T04:47:19.133Z,41.63
2019-02-07T04:50:09.568Z,41.30
2019-02-07T04:52:59.122Z,43.50
2019-02-07T04:55:45.759Z,41.77
2019-02-07T04:58:21.067Z,41.13
2019-02-07T05:00:56.499Z,42.27
2019-02-07T05:03:47.190Z,42.67
2019-02-07T05:06:25.116Z,42.73
2019-02-07T05:09:00.343Z,42.50
2019-02-07T05:11:41.623Z,43.57
2019-02-07T05:14:19.481Z,44.67
2019-02-07T05:17:03.605Z,42.80
2019-02-07T05:19:55.053Z,47.03
2019-02-07T05:22:46.442Z,44.93
2019-02-07T05:25:22.077Z,46.33
2019-02-07T05:28:03.032Z,46.80
2019-02-07T05:30:41.201Z,43.57
2019-02-07T05:33:32.569Z,46.27
2019-02-07T05:36:07.933Z,44.03
2019-02-07T05:38:52.179Z,47.83
2019-02-07T05:41:27.851Z,45.13
2019-02-07T05:44:06.032Z,46.10
2019-02-07T05:46:51.270Z,44.17
2019-02-07T05:49:43.094Z,42.97
2019-02-07T05:52:20.867Z,47.07
2019-02-07T05:55:04.929Z,45.83
2019-02-07T05:57:40.281Z,44.57
2019-02-07T06:00:24.522Z,47.17
2019-02-07T06:03:11.968Z,44.17
2019-02-07T06:05:49.995Z,48.13
2019-02-07T06:08:37.176Z,45.77
2019-02-07T06:14:26.278Z,49.70
2019-02-07T06:17:02.976Z,50.27
2019-02-07T06:19:54.807Z,49.33
2019-02-07T06:22:32.695Z,49.13
2019-02-07T06:25:22.532Z,48.07
2019-02-07T06:27:57.769Z,48.90
2019-02-07T06:30:38.636Z,47.33
2019-02-07T06:33:29.649Z,47.03
2019-02-07T06:36:23.149Z,49.27
2019-02-07T06:38:58.375Z,45.13
2019-02-07T06:41:36.655Z,47.70
2019-02-07T06:44:11.888Z,45.80
2019-02-07T06:47:13.004Z,47.57
2019-02-07T06:49:46.083Z,47.47
2019-02-07T06:52:24.366Z,48.53
2019-02-07T06:55:11.762Z,49.80
2019-02-07T06:57:47.138Z,49.93
2019-02-07T07:00:34.488Z,51.20
2019-02-07T07:03:12.671Z,49.50
2019-02-07T07:05:50.470Z,50.67
2019-02-07T07:08:31.545Z,50.90
2019-02-07T07:11:09.603Z,51.03
2019-02-07T07:13:50.992Z,53.23
2019-02-07T07:16:35.175Z,50.17
2019-02-07T07:19:16.264Z,48.93
2019-02-07T07:22:03.182Z,51.37
2019-02-07T07:24:54.905Z,53.00
2019-02-07T07:27:30.211Z,49.63
2019-02-07T07:30:10.198Z,52.30
2019-02-07T07:32:57.758Z,47.70
2019-02-07T07:35:35.930Z,52.63
2019-02-07T07:38:17.021Z,53.47
2019-02-07T07:40:58.017Z,52.23
2019-02-07T07:43:49.402Z,52.27
2019-02-07T07:46:24.737Z,48.83
2019-02-07T07:49:00.042Z,47.93
2019-02-07T07:51:51.349Z,46.57
2019-02-07T07:54:32.151Z,46.17
2019-02-07T07:57:10.320Z,44.37
2019-02-07T07:59:51.372Z,46.70
2019-02-07T08:02:27.754Z,46.87
2019-02-07T08:05:14.790Z,48.83
2019-02-07T08:07:58.969Z,45.13
2019-02-07T08:10:37.271Z,46.13
2019-02-07T08:13:12.692Z,45.17
2019-02-07T08:16:02.949Z,47.03
2019-02-07T08:18:44.504Z,45.80
2019-02-07T08:21:28.941Z,45.53
2019-02-07T08:24:20.535Z,44.43
2019-02-07T08:27:10.760Z,43.57
2019-02-07T08:29:52.232Z,41.97
2019-02-07T08:32:27.536Z,42.93
2019-02-07T08:35:18.098Z,42.93
2019-02-07T08:37:58.048Z,42.50
2019-02-07T08:40:35.691Z,42.17
2019-02-07T08:43:29.210Z,39.40
2019-02-07T08:46:16.492Z,42.00
2019-02-07T08:48:51.788Z,42.17
2019-02-07T08:51:36.041Z,41.63
2019-02-07T08:54:14.551Z,38.87
2019-02-07T08:56:55.765Z,38.53
2019-02-07T08:59:33.602Z,40.50
2019-02-07T09:02:09.079Z,38.33
2019-02-07T09:04:44.319Z,38.87
2019-02-07T09:07:22.501Z,37.10
2019-02-07T09:10:00.524Z,35.77
2019-02-07T09:12:41.980Z,37.30
2019-02-07T09:15:17.574Z,35.93
2019-02-07T09:18:11.378Z,38.73
2019-02-07T09:21:01.310Z,36.83
2019-02-07T09:23:55.014Z,38.40
2019-02-07T09:26:30.333Z,34.80
2019-02-07T09:29:08.768Z,34.67
2019-02-07T09:31:49.848Z,35.43
2019-02-07T09:34:30.982Z,33.23
2019-02-07T09:37:18.495Z,32.93
2019-02-07T09:40:10.035Z,33.33
2019-02-07T09:42:45.428Z,33.70
2019-02-07T09:45:20.859Z,36.60
2019-02-07T09:48:21.156Z,32.60
2019-02-07T09:50:53.518Z,34.53
2019-02-07T09:53:28.827Z,35.63
2019-02-07T09:56:12.994Z,36.63
2019-02-07T09:58:48.291Z,35.67
2019-02-07T10:01:32.352Z,32.90
2019-02-07T10:04:23.248Z,32.67
2019-02-07T10:06:58.456Z,33.23
2019-02-07T10:09:39.416Z,32.70
2019-02-07T10:12:23.945Z,33.60
2019-02-07T10:15:11.265Z,33.00
2019-02-07T10:17:58.734Z,31.63
2019-02-07T10:20:48.833Z,31.33
2019-02-07T10:23:40.437Z,33.20
2019-02-07T10:26:24.176Z,33.23
2019-02-07T10:29:08.611Z,32.43
2019-02-07T10:32:00.556Z,30.77
2019-02-07T10:34:41.588Z,32.27
2019-02-07T10:37:16.807Z,30.73
2019-02-07T10:39:52.237Z,29.87
2019-02-07T10:42:43.942Z,30.93
2019-02-07T10:45:28.076Z,30.10
2019-02-07T10:48:06.056Z,29.20
2019-02-07T10:50:43.946Z,29.10
2019-02-07T10:53:35.544Z,31.50
2019-02-07T10:56:10.868Z,31.20
2019-02-07T10:58:48.980Z,30.83
2019-02-07T11:01:24.369Z,27.13
2019-02-07T11:04:02.708Z,28.87
2019-02-07T11:06:49.968Z,30.67
2019-02-07T11:09:41.450Z,32.60
2019-02-07T11:12:19.702Z,30.47
2019-02-07T11:14:57.518Z,31.03
2019-02-07T11:17:48.071Z,27.10
2019-02-07T11:20:39.867Z,25.17
2019-02-07T11:23:15.240Z,24.57
2019-02-07T11:26:06.882Z,23.67
2019-02-07T11:28:42.139Z,24.60
2019-02-07T11:31:35.684Z,24.17
2019-02-07T11:34:16.552Z,26.13
2019-02-07T11:37:08.271Z,30.87
2019-02-07T11:39:55.541Z,35.93
2019-02-07T11:42:33.725Z,36.30
2019-02-07T11:45:15.369Z,35.90
2019-02-07T11:48:02.767Z,35.30
2019-02-07T11:50:46.684Z,34.60
2019-02-07T11:53:22.030Z,35.47
2019-02-07T11:56:06.040Z,34.10
2019-02-07T11:58:41.380Z,34.87
2019-02-07T12:01:28.418Z,34.83
2019-02-07T12:04:12.811Z,36.50
2019-02-07T12:06:48.302Z,37.53
2019-02-07T12:09:26.448Z,35.53
2019-02-07T12:12:01.781Z,35.77
2019-02-07T12:14:53.498Z,35.17
2019-02-07T12:17:41.234Z,35.87
2019-02-07T12:20:16.593Z,35.90
2019-02-07T12:22:54.630Z,37.50
2019-02-07T12:25:41.531Z,38.70
2019-02-07T12:28:28.710Z,37.43
2019-02-07T12:31:09.596Z,44.63
2019-02-07T12:33:50.700Z,38.70
2019-02-07T12:36:28.772Z,38.90
2019-02-07T12:39:08.276Z,37.97
2019-02-07T12:41:49.319Z,36.90
2019-02-07T12:44:27.683Z,37.53
2019-02-07T12:47:15.520Z,37.00
2019-02-07T12:50:02.977Z,38.20
2019-02-07T12:52:54.755Z,38.40
2019-02-07T12:55:29.992Z,38.97
2019-02-07T12:58:21.622Z,38.63
2019-02-07T13:01:02.839Z,37.93
2019-02-07T13:03:47.124Z,39.33
2019-02-07T13:06:22.391Z,37.90
2019-02-07T13:09:14.227Z,39.30
2019-02-07T13:12:05.968Z,38.87
2019-02-07T13:14:41.307Z,38.10
2019-02-07T13:17:22.524Z,37.53
2019-02-07T13:20:00.726Z,37.60
2019-02-07T13:22:36.399Z,40.73
2019-02-07T13:25:15.530Z,38.13
2019-02-07T13:27:53.644Z,37.20
2019-02-07T13:30:34.729Z,38.80
2019-02-07T13:33:10.000Z,39.87
2019-02-07T13:35:50.886Z,40.67
2019-02-07T13:38:32.085Z,37.37
2019-02-07T13:41:25.568Z,36.60
2019-02-07T13:44:03.977Z,36.83
2019-02-07T13:46:55.868Z,37.30
2019-02-07T13:49:34.032Z,35.63
2019-02-07T13:52:09.513Z,35.30
2019-02-07T13:54:48.052Z,34.73
2019-02-07T13:57:32.380Z,34.23
2019-02-07T14:00:13.353Z,34.63
2019-02-07T14:02:51.522Z,34.67
2019-02-07T14:05:43.173Z,33.77
2019-02-07T14:08:18.451Z,34.80
2019-02-07T14:10:53.684Z,35.97
2019-02-07T14:13:45.533Z,36.20
2019-02-07T14:16:23.609Z,41.07
2019-02-07T14:19:15.499Z,44.13
2019-02-07T14:22:05.610Z,45.53
2019-02-07T14:24:54.263Z,49.60
2019-02-07T14:27:45.628Z,43.90
2019-02-07T14:30:21.010Z,43.07
2019-02-07T14:33:11.766Z,41.13
2019-02-07T14:35:49.565Z,43.33
2019-02-07T14:38:24.913Z,44.63
2019-02-07T14:41:05.709Z,44.23
2019-02-07T14:43:57.433Z,41.17
2019-02-07T14:46:41.901Z,42.77
2019-02-07T14:49:15.719Z,41.73
2019-02-07T14:51:49.439Z,41.80
2019-02-07T14:54:23.184Z,43.00
2019-02-07T14:56:56.811Z,41.87
2019-02-07T14:59:30.991Z,43.27
2019-02-07T15:02:04.870Z,42.00
2019-02-07T15:04:38.905Z,45.33
2019-02-07T15:07:12.533Z,44.83
2019-02-07T15:09:46.350Z,43.53
2019-02-07T15:12:19.983Z,45.60
2019-02-07T15:14:53.633Z,45.20
2019-02-07T15:17:27.318Z,46.63
2019-02-07T15:20:00.906Z,46.00
2019-02-07T15:22:34.545Z,47.60
2019-02-07T15:25:11.169Z,46.60
2019-02-07T15:27:44.844Z,48.87
2019-02-07T15:30:20.601Z,48.00
2019-02-07T15:32:54.202Z,51.03
2019-02-07T15:35:33.685Z,50.87
2019-02-07T15:38:07.411Z,52.43
2019-02-07T15:40:41.227Z,52.53
2019-02-07T15:43:15.744Z,53.50
2019-02-07T15:45:49.503Z,53.70
2019-02-07T15:48:23.602Z,56.77
2019-02-07T15:50:57.293Z,57.90
2019-02-07T15:53:30.971Z,57.10
2019-02-07T15:56:04.980Z,57.87
2019-02-07T15:58:42.785Z,57.77
2019-02-07T16:01:18.094Z,59.10
2019-02-07T16:03:56.295Z,56.73
2019-02-07T16:06:29.895Z,57.07
2019-02-07T16:09:05.906Z,56.87
2019-02-07T16:11:39.538Z,55.37
2019-02-07T16:14:13.283Z,56.40
2019-02-07T16:16:46.954Z,60.53
2019-02-07T16:19:22.982Z,56.30
2019-02-07T16:21:56.661Z,56.40
2019-02-07T16:24:30.323Z,58.60
2019-02-07T16:27:04.375Z,59.33
2019-02-07T16:29:37.987Z,60.17
2019-02-07T16:32:11.836Z,57.63
2019-02-07T16:34:45.505Z,58.47
2019-02-07T16:37:19.317Z,58.27
2019-02-07T16:39:53.154Z,57.63
2019-02-07T16:42:26.877Z,59.80
2019-02-07T16:45:00.634Z,57.50
2019-02-07T16:47:34.432Z,58.00
2019-02-07T16:50:11.169Z,59.57
2019-02-07T16:52:44.903Z,61.00
2019-02-07T16:55:18.713Z,60.17
2019-02-07T16:57:52.355Z,58.80
2019-02-07T17:00:33.817Z,56.47
2019-02-07T17:03:07.516Z,59.77
2019-02-07T17:05:41.455Z,61.40
2019-02-07T17:08:15.111Z,58.30
2019-02-07T17:10:49.191Z,55.90
2019-02-07T17:13:29.087Z,59.93
2019-02-07T17:16:02.879Z,54.30
2019-02-07T17:18:36.537Z,56.97
2019-02-07T17:21:12.272Z,53.43
2019-02-07T17:23:45.694Z,52.83
2019-02-07T17:26:19.474Z,51.10
2019-02-07T17:28:53.139Z,51.80
2019-02-07T17:31:26.775Z,50.67
2019-02-07T17:34:00.463Z,49.77
2019-02-07T17:36:34.101Z,50.17
2019-02-07T17:39:08.225Z,50.47
2019-02-07T17:41:41.901Z,49.07
2019-02-07T17:44:15.569Z,47.97
2019-02-07T17:46:49.293Z,48.00
2019-02-07T17:49:23.129Z,47.97
2019-02-07T17:51:56.834Z,49.27
2019-02-07T17:54:30.573Z,47.50
2019-02-07T17:57:04.739Z,47.40
2019-02-07T17:59:38.464Z,49.17
2019-02-07T18:02:13.784Z,47.13
2019-02-07T18:04:47.414Z,47.50
2019-02-07T18:07:21.067Z,49.27
2019-02-07T18:09:54.750Z,48.87
2019-02-07T18:12:28.444Z,46.70
2019-02-07T18:15:02.239Z,47.03
2019-02-07T18:17:35.972Z,47.90
2019-02-07T18:20:13.483Z,46.60
2019-02-07T18:22:47.204Z,44.67
2019-02-07T18:25:21.058Z,43.10
2019-02-07T18:27:54.762Z,44.33
2019-02-07T18:30:29.306Z,42.97
2019-02-07T18:33:03.010Z,45.43
2019-02-07T18:35:36.784Z,44.13
2019-02-07T18:38:10.532Z,44.27
2019-02-07T18:40:45.202Z,41.00
2019-02-07T18:43:18.788Z,41.63
2019-02-07T18:45:52.493Z,41.97
2019-02-07T18:48:26.074Z,42.70
2019-02-07T18:50:59.722Z,41.73
2019-02-07T18:53:33.516Z,41.03
2019-02-07T18:56:07.184Z,40.27
2019-02-07T18:58:41.050Z,40.23
2019-02-07T19:01:14.633Z,40.60
2019-02-07T19:03:48.280Z,38.87
2019-02-07T19:06:21.877Z,39.97
2019-02-07T19:08:55.594Z,40.13
2019-02-07T19:11:29.247Z,40.27
2019-02-07T19:14:02.966Z,38.83
2019-02-07T19:16:36.688Z,39.13
2019-02-07T19:19:10.401Z,39.37
2019-02-07T19:21:44.112Z,37.50
2019-02-07T19:24:17.804Z,37.80
2019-02-07T19:26:51.632Z,37.63
2019-02-07T19:29:25.336Z,38.77
2019-02-07T19:31:58.924Z,38.50
2019-02-07T19:34:32.924Z,38.50
2019-02-07T19:37:07.117Z,39.50
2019-02-07T19:39:41.188Z,36.73
2019-02-07T19:42:14.773Z,38.17
2019-02-07T19:44:48.470Z,37.57
2019-02-07T19:47:22.142Z,36.93
2019-02-07T19:49:56.154Z,36.23
2019-02-07T19:52:30.280Z,36.27
2019-02-07T19:55:05.098Z,38.87
2019-02-07T19:57:38.699Z,35.63
2019-02-07T20:00:18.331Z,36.27
2019-02-07T20:02:52.234Z,38.50
2019-02-07T20:05:26.420Z,37.27
2019-02-07T20:08:00.385Z,38.40
2019-02-07T20:10:34.164Z,38.40
2019-02-07T20:13:07.889Z,36.70
2019-02-07T20:15:43.399Z,36.33
2019-02-07T20:18:17.153Z,34.70
2019-02-07T20:20:50.863Z,37.13
2019-02-07T20:23:24.950Z,34.97
2019-02-07T20:25:58.681Z,37.53
2019-02-07T20:28:32.570Z,36.83
2019-02-07T20:31:06.394Z,36.87
2019-02-07T20:33:40.096Z,36.30
2019-02-07T20:36:14.012Z,34.23
2019-02-07T20:38:47.748Z,34.90
2019-02-07T20:41:21.825Z,34.27
2019-02-07T20:43:55.421Z,34.50
2019-02-07T20:46:29.231Z,34.73
2019-02-07T20:49:02.790Z,34.70
2019-02-07T20:51:36.514Z,35.83
2019-02-07T20:54:10.106Z,33.17
2019-02-07T20:56:43.768Z,34.67
2019-02-07T20:59:17.834Z,35.53
2019-02-07T21:01:51.461Z,34.53
2019-02-07T21:04:25.065Z,34.50
2019-02-07T21:06:58.690Z,35.57
2019-02-07T21:09:32.364Z,35.30
2019-02-07T21:12:06.282Z,36.97
2019-02-07T21:14:39.952Z,37.33
2019-02-07T21:17:13.678Z,37.67
2019-02-07T21:19:47.247Z,35.60
2019-02-07T21:22:21.095Z,37.13
2019-02-07T21:24:54.658Z,36.40
2019-02-07T21:27:28.301Z,37.40
2019-02-07T21:30:02.084Z,36.83
2019-02-07T21:32:35.668Z,36.50
2019-02-07T21:35:12.741Z,36.40
2019-02-07T21:37:46.434Z,38.70
2019-02-07T21:40:22.362Z,37.10
2019-02-07T21:42:56.844Z,38.73
2019-02-07T21:45:30.518Z,36.57
2019-02-07T21:48:05.992Z,40.47
2019-02-07T21:50:39.699Z,38.93
2019-02-07T21:53:13.353Z,39.00
2019-02-07T21:55:46.946Z,38.27
2019-02-07T21:58:20.853Z,38.13
2019-02-07T22:00:54.512Z,37.97
2019-02-07T22:03:28.220Z,42.20
2019-02-07T22:06:01.908Z,39.93
2019-02-07T22:08:35.615Z,40.47
2019-02-07T22:11:10.847Z,40.07
2019-02-07T22:13:44.480Z,39.43
2019-02-07T22:16:18.064Z,41.10
2019-02-07T22:18:51.695Z,38.63
2019-02-07T22:21:25.280Z,40.87
2019-02-07T22:23:58.927Z,44.30
2019-02-07T22:26:32.556Z,49.37
2019-02-07T22:29:06.321Z,44.10
2019-02-07T22:31:40.225Z,40.17
2019-02-07T22:34:13.946Z,40.07
2019-02-07T22:36:47.548Z,38.90
2019-02-07T22:39:21.188Z,39.53
2019-02-07T22:41:54.782Z,38.23
2019-02-07T22:44:28.425Z,41.83
2019-02-07T22:47:02.102Z,38.00
2019-02-07T22:49:35.699Z,39.17
2019-02-07T22:52:09.462Z,38.53
2019-02-07T22:54:43.473Z,37.70
2019-02-07T22:57:25.733Z,36.10
2019-02-07T22:59:59.427Z,38.93
2019-02-07T23:02:33.218Z,39.47
2019-02-07T23:05:07.330Z,37.27
2019-02-07T23:07:41.016Z,38.73
2019-02-07T23:10:14.765Z,39.50
2019-02-07T23:12:48.710Z,39.40
2019-02-07T23:15:22.637Z,38.33
2019-02-07T23:17:56.256Z,37.73
2019-02-07T23:20:29.956Z,37.43
2019-02-07T23:23:06.382Z,36.70
2019-02-07T23:25:40.429Z,38.77
2019-02-07T23:28:14.351Z,36.83
2019-02-07T23:30:48.056Z,38.03
2019-02-07T23:33:21.791Z,39.00
2019-02-07T23:35:55.465Z,39.07
2019-02-07T23:38:29.117Z,38.67
2019-02-07T23:41:02.759Z,37.87
2019-02-07T23:43:36.480Z,39.20
2019-02-07T23:46:11.168Z,38.13
2019-02-07T23:48:45.092Z,37.07
2019-02-07T23:51:18.835Z,36.37
2019-02-07T23:53:52.605Z,34.87
2019-02-07T23:56:26.213Z,35.37
2019-02-07T23:58:59.880Z,38.10
